createdAt,value
2018-03-25T00:01:34.907Z,-0.10
2018-03-25T00:04:03.311Z,-0.10
2018-03-25T00:06:31.488Z,-0.20
2018-03-25T00:08:59.758Z,-0.20
2018-03-25T00:11:27.221Z,-0.20
2018-03-25T00:13:56.159Z,-0.30
2018-03-25T00:16:24.280Z,-0.30
2018-03-25T00:18:52.170Z,-0.20
2018-03-25T00:21:20.735Z,-0.20
2018-03-25T00:23:48.199Z,-0.20
2018-03-25T00:26:16.429Z,-0.30
2018-03-25T00:28:43.898Z,-0.30
2018-03-25T00:31:11.358Z,-0.40
2018-03-25T00:33:38.826Z,-0.50
2018-03-25T00:36:06.298Z,-0.50
2018-03-25T00:38:34.919Z,-0.50
2018-03-25T00:41:03.151Z,-0.60
2018-03-25T00:43:31.943Z,-0.60
2018-03-25T00:45:59.512Z,-0.60
2018-03-25T00:48:27.130Z,-0.70
2018-03-25T00:50:54.579Z,-0.80
2018-03-25T00:53:23.142Z,-0.80
2018-03-25T00:55:51.378Z,-0.90
2018-03-25T00:58:18.957Z,-0.90
2018-03-25T01:00:46.415Z,-1.00
2018-03-25T01:03:13.921Z,-1.00
2018-03-25T01:05:41.682Z,-1.00
2018-03-25T01:08:09.198Z,-1.00
2018-03-25T01:10:36.665Z,-1.00
2018-03-25T01:13:04.894Z,-1.00
2018-03-25T01:15:44.326Z,-1.10
2018-03-25T01:18:11.790Z,-1.10
2018-03-25T01:20:39.250Z,-1.10
2018-03-25T01:23:06.710Z,-1.10
2018-03-25T01:25:34.603Z,-1.00
2018-03-25T01:28:02.169Z,-0.90
2018-03-25T01:30:30.339Z,-0.90
2018-03-25T01:32:57.814Z,-0.80
2018-03-25T01:35:26.136Z,-0.80
2018-03-25T01:37:53.598Z,-0.80
2018-03-25T01:40:21.701Z,-0.80
2018-03-25T01:42:49.170Z,-0.80
2018-03-25T01:45:16.637Z,-0.90
2018-03-25T01:47:44.094Z,-1.00
2018-03-25T01:50:12.323Z,-1.10
2018-03-25T01:52:39.838Z,-1.10
2018-03-25T01:55:08.055Z,-1.10
2018-03-25T01:57:36.341Z,-1.20
2018-03-25T02:00:03.906Z,-1.10
2018-03-25T02:02:31.395Z,-1.20
2018-03-25T02:04:59.458Z,-1.20
2018-03-25T02:07:27.534Z,-1.20
2018-03-25T02:09:55.197Z,-1.20
2018-03-25T02:12:23.171Z,-1.20
2018-03-25T02:14:51.363Z,-1.30
2018-03-25T02:17:19.590Z,-1.30
2018-03-25T02:19:47.054Z,-1.40
2018-03-25T02:22:14.530Z,-1.40
2018-03-25T02:24:41.990Z,-1.40
2018-03-25T02:27:09.549Z,-1.40
2018-03-25T02:29:37.723Z,-1.40
2018-03-25T02:32:05.622Z,-1.40
2018-03-25T02:34:34.183Z,-1.40
2018-03-25T02:37:01.643Z,-1.40
2018-03-25T02:39:30.055Z,-1.40
2018-03-25T02:41:57.484Z,-1.40
2018-03-25T02:44:25.036Z,-1.40
2018-03-25T02:46:52.498Z,-1.40
2018-03-25T02:49:19.957Z,-1.40
2018-03-25T02:51:48.027Z,-1.40
2018-03-25T02:54:15.586Z,-1.40
2018-03-25T02:56:43.699Z,-1.40
2018-03-25T02:59:11.626Z,-1.50
2018-03-25T03:01:39.147Z,-1.50
2018-03-25T03:04:06.651Z,-1.50
2018-03-25T03:06:34.111Z,-1.50
2018-03-25T03:09:03.146Z,-1.60
2018-03-25T03:11:31.195Z,-1.60
2018-03-25T03:13:59.429Z,-1.50
2018-03-25T03:16:27.989Z,-1.50
2018-03-25T03:18:55.494Z,-1.50
2018-03-25T03:21:24.283Z,-1.50
2018-03-25T03:23:51.841Z,-1.60
2018-03-25T03:26:20.061Z,-1.70
2018-03-25T03:28:47.986Z,-1.70
2018-03-25T03:31:15.852Z,-1.60
2018-03-25T03:33:43.934Z,-1.60
2018-03-25T03:36:11.389Z,-1.70
2018-03-25T03:38:38.850Z,-1.70
2018-03-25T03:41:06.307Z,-1.70
2018-03-25T03:43:33.859Z,-1.70
2018-03-25T03:46:01.319Z,-1.70
2018-03-25T03:48:29.694Z,-1.80
2018-03-25T03:50:57.782Z,-1.80
2018-03-25T03:53:26.051Z,-1.80
2018-03-25T03:55:54.010Z,-1.80
2018-03-25T03:58:21.578Z,-1.90
2018-03-25T04:00:49.271Z,-1.90
2018-03-25T04:03:17.554Z,-1.80
2018-03-25T04:05:46.364Z,-1.80
2018-03-25T04:08:14.563Z,-1.70
2018-03-25T04:10:42.034Z,-1.70
2018-03-25T04:13:09.514Z,-1.70
2018-03-25T04:15:37.733Z,-1.70
2018-03-25T04:18:05.235Z,-1.70
2018-03-25T04:20:32.794Z,-1.70
2018-03-25T04:23:00.250Z,-1.70
2018-03-25T04:25:27.714Z,-1.70
2018-03-25T04:27:55.782Z,-1.70
2018-03-25T04:30:23.933Z,-1.80
2018-03-25T04:32:52.130Z,-1.80
2018-03-25T04:35:20.406Z,-1.80
2018-03-25T04:37:49.438Z,-1.80
2018-03-25T04:40:18.288Z,-1.80
2018-03-25T04:42:45.815Z,-1.90
2018-03-25T04:45:13.446Z,-1.90
2018-03-25T04:47:42.193Z,-1.90
2018-03-25T04:50:09.663Z,-1.90
2018-03-25T04:52:37.942Z,-1.90
2018-03-25T04:55:06.174Z,-1.90
2018-03-25T04:57:34.348Z,-2.00
2018-03-25T05:00:02.506Z,-2.00
2018-03-25T05:02:31.107Z,-2.00
2018-03-25T05:04:58.572Z,-1.90
2018-03-25T05:07:26.741Z,-2.00
2018-03-25T05:09:54.998Z,-2.00
2018-03-25T05:12:22.457Z,-2.00
2018-03-25T05:14:50.359Z,-1.90
2018-03-25T05:17:17.849Z,-1.90
2018-03-25T05:19:45.298Z,-1.90
2018-03-25T05:22:12.762Z,-1.90
2018-03-25T05:24:40.860Z,-1.90
2018-03-25T05:27:09.090Z,-1.70
2018-03-25T05:29:37.414Z,-1.70
2018-03-25T05:32:05.646Z,-1.60
2018-03-25T05:34:33.106Z,-1.60
2018-03-25T05:37:00.674Z,-1.50
2018-03-25T05:39:28.625Z,-1.30
2018-03-25T05:41:56.634Z,-1.30
2018-03-25T05:44:24.107Z,-1.20
2018-03-25T05:46:53.111Z,-0.90
2018-03-25T05:49:21.334Z,-0.80
2018-03-25T05:51:48.915Z,-0.90
2018-03-25T05:54:16.690Z,-0.70
2018-03-25T05:56:44.907Z,-0.50
2018-03-25T05:59:12.411Z,-0.50
2018-03-25T06:01:40.174Z,-0.40
2018-03-25T06:04:08.250Z,-0.20
2018-03-25T06:06:35.706Z,-0.10
2018-03-25T06:09:03.158Z,0.00
2018-03-25T06:11:30.622Z,0.10
2018-03-25T06:13:58.931Z,0.20
2018-03-25T06:16:27.146Z,0.50
2018-03-25T06:18:54.630Z,0.50
2018-03-25T06:21:22.903Z,0.70
2018-03-25T06:23:51.126Z,0.80
2018-03-25T06:26:18.655Z,1.00
2018-03-25T06:28:46.626Z,1.10
2018-03-25T06:31:14.198Z,1.20
2018-03-25T06:33:42.574Z,1.60
2018-03-25T06:36:10.930Z,1.80
2018-03-25T06:38:39.478Z,1.90
2018-03-25T06:41:07.278Z,1.90
2018-03-25T06:43:35.161Z,2.10
2018-03-25T06:46:02.706Z,2.30
2018-03-25T06:48:30.171Z,2.50
2018-03-25T06:50:59.111Z,2.90
2018-03-25T06:53:27.293Z,2.80
2018-03-25T06:55:55.468Z,3.00
2018-03-25T06:58:22.931Z,3.10
2018-03-25T07:00:50.459Z,3.30
2018-03-25T07:03:18.679Z,3.60
2018-03-25T07:05:46.448Z,3.60
2018-03-25T07:08:14.752Z,3.80
2018-03-25T07:10:42.800Z,4.00
2018-03-25T07:13:10.462Z,4.10
2018-03-25T07:15:37.926Z,4.30
2018-03-25T07:18:05.378Z,4.50
2018-03-25T07:20:32.842Z,4.70
2018-03-25T07:23:00.921Z,4.80
2018-03-25T07:25:28.449Z,5.00
2018-03-25T07:27:56.354Z,5.10
2018-03-25T07:30:24.588Z,5.40
2018-03-25T07:32:52.090Z,5.30
2018-03-25T07:35:19.796Z,5.50
2018-03-25T07:37:48.254Z,5.80
2018-03-25T07:40:16.618Z,6.00
2018-03-25T07:42:45.035Z,6.10
2018-03-25T07:45:13.066Z,6.10
2018-03-25T07:47:41.032Z,6.40
2018-03-25T07:50:08.747Z,6.60
2018-03-25T07:52:36.162Z,6.80
2018-03-25T07:55:03.610Z,7.00
2018-03-25T07:57:31.060Z,7.30
2018-03-25T07:59:58.997Z,7.40
2018-03-25T08:02:26.950Z,7.60
2018-03-25T08:04:54.945Z,7.70
2018-03-25T08:07:23.015Z,7.90
2018-03-25T08:09:50.890Z,8.10
2018-03-25T08:12:18.758Z,8.30
2018-03-25T08:14:46.248Z,8.30
2018-03-25T08:17:13.704Z,8.40
2018-03-25T08:19:41.171Z,8.40
2018-03-25T08:22:09.114Z,8.60
2018-03-25T08:24:36.928Z,8.70
2018-03-25T08:27:05.178Z,8.90
2018-03-25T08:29:33.466Z,8.90
2018-03-25T08:32:01.434Z,9.00
2018-03-25T08:34:29.192Z,9.00
2018-03-25T08:36:56.878Z,9.00
2018-03-25T08:39:24.515Z,9.00
2018-03-25T08:41:51.958Z,9.00
2018-03-25T08:44:19.554Z,9.00
2018-03-25T08:46:47.938Z,8.90
2018-03-25T08:49:16.303Z,9.20
2018-03-25T08:51:43.799Z,9.10
2018-03-25T08:54:11.753Z,9.30
2018-03-25T08:56:40.058Z,9.60
2018-03-25T08:59:08.622Z,9.60
2018-03-25T09:01:36.487Z,9.60
2018-03-25T09:04:04.726Z,9.90
2018-03-25T09:06:32.179Z,9.90
2018-03-25T09:08:59.908Z,9.90
2018-03-25T09:11:28.092Z,9.90
2018-03-25T09:13:55.542Z,10.00
2018-03-25T09:16:23.342Z,10.00
2018-03-25T09:18:50.809Z,10.10
2018-03-25T09:21:19.305Z,10.20
2018-03-25T09:23:46.750Z,10.40
2018-03-25T09:26:15.126Z,10.50
2018-03-25T09:28:42.695Z,10.60
2018-03-25T09:31:10.147Z,10.70
2018-03-25T09:33:37.614Z,10.70
2018-03-25T09:36:05.063Z,10.80
2018-03-25T09:38:32.582Z,10.70
2018-03-25T09:41:00.032Z,10.60
2018-03-25T09:43:27.492Z,10.60
2018-03-25T09:45:54.953Z,10.60
2018-03-25T09:48:22.513Z,10.70
2018-03-25T09:50:50.422Z,10.70
2018-03-25T09:53:19.544Z,10.80
2018-03-25T09:55:48.298Z,11.00
2018-03-25T09:58:15.767Z,11.00
2018-03-25T10:00:43.227Z,11.00
2018-03-25T10:03:16.378Z,11.10
2018-03-25T10:05:44.445Z,11.10
2018-03-25T10:08:13.606Z,11.20
2018-03-25T10:10:41.863Z,11.60
2018-03-25T10:13:09.707Z,11.60
2018-03-25T10:15:38.474Z,11.50
2018-03-25T10:18:06.630Z,11.40
2018-03-25T10:20:34.638Z,11.20
2018-03-25T10:23:02.618Z,11.30
2018-03-25T10:25:30.922Z,11.20
2018-03-25T10:27:58.837Z,11.10
2018-03-25T10:30:27.336Z,11.00
2018-03-25T10:32:56.059Z,11.10
2018-03-25T10:35:24.285Z,11.10
2018-03-25T10:37:52.665Z,11.30
2018-03-25T10:40:20.171Z,11.40
2018-03-25T10:42:47.633Z,11.50
2018-03-25T10:45:15.085Z,11.50
2018-03-25T10:47:42.634Z,11.50
2018-03-25T10:50:10.090Z,11.40
2018-03-25T10:52:37.918Z,11.50
2018-03-25T10:55:05.462Z,11.40
2018-03-25T10:57:32.916Z,11.40
2018-03-25T11:00:01.726Z,11.30
2018-03-25T11:02:29.223Z,11.30
2018-03-25T11:04:56.686Z,11.40
2018-03-25T11:07:24.946Z,11.50
2018-03-25T11:09:52.830Z,11.70
2018-03-25T11:12:20.614Z,11.60
2018-03-25T11:14:49.358Z,11.50
2018-03-25T11:17:16.817Z,11.50
2018-03-25T11:19:44.273Z,11.80
2018-03-25T11:22:11.734Z,12.00
2018-03-25T11:24:39.230Z,12.10
2018-03-25T11:27:07.292Z,12.10
2018-03-25T11:29:34.757Z,12.20
2018-03-25T11:32:02.304Z,12.30
2018-03-25T11:34:30.453Z,12.20
2018-03-25T11:36:57.906Z,12.10
2018-03-25T11:39:26.438Z,12.10
2018-03-25T11:41:55.377Z,12.20
2018-03-25T11:44:23.594Z,12.40
2018-03-25T11:46:51.054Z,12.60
2018-03-25T11:49:18.510Z,12.80
2018-03-25T11:51:46.023Z,12.80
2018-03-25T11:54:14.452Z,12.70
2018-03-25T11:56:42.622Z,12.80
2018-03-25T11:59:10.943Z,13.00
2018-03-25T12:01:38.410Z,13.20
2018-03-25T12:04:06.035Z,13.00
2018-03-25T12:06:33.481Z,12.50
2018-03-25T12:09:01.916Z,12.30
2018-03-25T12:11:29.674Z,12.30
2018-03-25T12:13:57.818Z,12.50
2018-03-25T12:16:26.119Z,12.80
2018-03-25T12:18:53.536Z,12.80
2018-03-25T12:21:23.273Z,13.40
2018-03-25T12:23:52.123Z,13.30
2018-03-25T12:26:21.083Z,13.30
2018-03-25T12:28:48.523Z,13.20
2018-03-25T12:31:15.986Z,12.90
2018-03-25T12:33:43.788Z,12.80
2018-03-25T12:36:11.675Z,12.80
2018-03-25T12:38:39.963Z,12.60
2018-03-25T12:41:07.410Z,12.40
2018-03-25T12:43:34.898Z,12.40
2018-03-25T12:46:03.182Z,12.30
2018-03-25T12:48:30.642Z,12.30
2018-03-25T12:50:58.626Z,12.40
2018-03-25T12:53:27.615Z,12.70
2018-03-25T12:55:55.858Z,12.80
2018-03-25T12:58:23.822Z,13.00
2018-03-25T13:00:51.332Z,13.10
2018-03-25T13:03:19.458Z,13.20
2018-03-25T13:05:46.913Z,13.00
2018-03-25T13:08:15.146Z,12.60
2018-03-25T13:10:42.611Z,12.60
2018-03-25T13:13:11.553Z,12.60
2018-03-25T13:15:39.802Z,12.60
2018-03-25T13:18:07.987Z,12.50
2018-03-25T13:20:36.215Z,12.80
2018-03-25T13:23:03.719Z,12.80
2018-03-25T13:25:31.182Z,12.90
2018-03-25T13:27:58.634Z,13.00
2018-03-25T13:30:26.114Z,13.30
2018-03-25T13:32:55.242Z,13.10
2018-03-25T13:35:22.712Z,13.00
2018-03-25T13:37:50.215Z,13.10
2018-03-25T13:40:17.662Z,13.00
2018-03-25T13:42:45.667Z,12.90
2018-03-25T13:45:13.909Z,12.60
2018-03-25T13:47:41.366Z,12.60
2018-03-25T13:50:08.821Z,12.70
2018-03-25T13:52:36.389Z,12.90
2018-03-25T13:55:03.843Z,12.90
2018-03-25T13:57:31.324Z,13.00
2018-03-25T13:59:58.783Z,13.00
2018-03-25T14:02:27.005Z,12.70
2018-03-25T14:04:54.483Z,12.70
2018-03-25T14:07:21.938Z,12.80
2018-03-25T14:09:49.810Z,13.00
2018-03-25T14:12:17.397Z,13.20
2018-03-25T14:14:44.850Z,13.30
2018-03-25T14:17:12.330Z,13.50
2018-03-25T14:19:40.558Z,13.40
2018-03-25T14:22:08.135Z,13.30
2018-03-25T14:24:35.922Z,13.30
2018-03-25T14:27:04.157Z,13.00
2018-03-25T14:29:31.738Z,13.00
2018-03-25T14:32:00.113Z,12.80
2018-03-25T14:34:27.573Z,12.60
2018-03-25T14:36:55.022Z,12.50
2018-03-25T14:39:22.490Z,12.40
2018-03-25T14:41:49.947Z,12.40
2018-03-25T14:44:20.373Z,12.40
2018-03-25T14:46:48.650Z,12.70
2018-03-25T14:49:16.214Z,12.60
2018-03-25T14:51:43.693Z,12.90
2018-03-25T14:54:11.138Z,13.00
2018-03-25T14:56:38.602Z,13.00
2018-03-25T14:59:07.604Z,12.90
2018-03-25T15:01:35.141Z,12.90
2018-03-25T15:04:02.726Z,13.00
2018-03-25T15:06:31.991Z,13.00
2018-03-25T15:08:59.455Z,13.00
2018-03-25T15:11:26.924Z,13.00
2018-03-25T15:13:54.386Z,12.90
2018-03-25T15:16:21.942Z,12.90
2018-03-25T15:18:49.707Z,12.90
2018-03-25T15:21:17.656Z,12.90
2018-03-25T15:23:45.750Z,12.80
2018-03-25T15:26:14.547Z,12.80
2018-03-25T15:28:42.718Z,12.70
2018-03-25T15:31:11.118Z,12.60
2018-03-25T15:33:39.572Z,12.30
2018-03-25T15:36:07.026Z,12.30
2018-03-25T15:38:34.803Z,12.20
2018-03-25T15:41:03.066Z,11.90
2018-03-25T15:43:30.564Z,11.90
2018-03-25T15:45:58.798Z,11.80
2018-03-25T15:48:26.817Z,11.80
2018-03-25T15:50:55.812Z,11.90
2018-03-25T15:53:23.280Z,12.00
2018-03-25T15:55:51.199Z,12.00
2018-03-25T15:58:19.274Z,12.00
2018-03-25T16:00:47.245Z,12.10
2018-03-25T16:03:14.719Z,12.00
2018-03-25T16:05:42.938Z,12.00
2018-03-25T16:08:10.638Z,12.00
2018-03-25T16:10:38.099Z,12.00
2018-03-25T16:13:06.166Z,12.00
2018-03-25T16:15:34.346Z,11.90
2018-03-25T16:18:01.807Z,11.90
2018-03-25T16:20:29.270Z,11.80
2018-03-25T16:22:58.047Z,11.80
2018-03-25T16:25:25.623Z,11.80
2018-03-25T16:27:53.770Z,11.70
2018-03-25T16:30:21.346Z,11.70
2018-03-25T16:32:48.808Z,11.70
2018-03-25T16:35:17.078Z,11.70
2018-03-25T16:37:45.354Z,11.70
2018-03-25T16:40:12.807Z,11.50
2018-03-25T16:42:40.286Z,11.40
2018-03-25T16:45:08.244Z,11.30
2018-03-25T16:47:35.822Z,11.20
2018-03-25T16:50:04.371Z,11.10
2018-03-25T16:52:31.848Z,11.00
2018-03-25T16:55:00.282Z,11.00
2018-03-25T16:57:28.628Z,10.90
2018-03-25T16:59:57.806Z,10.80
2018-03-25T17:02:29.063Z,10.80
2018-03-25T17:04:56.525Z,10.70
2018-03-25T17:07:24.298Z,10.60
2018-03-25T17:09:52.543Z,10.40
2018-03-25T17:12:20.505Z,10.40
2018-03-25T17:14:47.962Z,10.40
2018-03-25T17:17:16.066Z,10.30
2018-03-25T17:19:43.519Z,10.30
2018-03-25T17:22:11.978Z,10.00
2018-03-25T17:24:39.803Z,10.00
2018-03-25T17:27:07.931Z,9.90
2018-03-25T17:29:35.377Z,9.90
2018-03-25T17:32:02.839Z,9.80
2018-03-25T17:34:30.669Z,9.70
2018-03-25T17:36:58.507Z,9.60
2018-03-25T17:39:26.734Z,9.60
2018-03-25T17:41:54.209Z,9.50
2018-03-25T17:44:21.730Z,9.50
2018-03-25T17:46:50.207Z,9.50
2018-03-25T17:49:17.670Z,9.40
2018-03-25T17:51:46.026Z,9.40
2018-03-25T17:54:15.093Z,9.10
2018-03-25T17:56:43.366Z,9.10
2018-03-25T17:59:11.230Z,9.00
2018-03-25T18:01:39.511Z,8.90
2018-03-25T18:04:06.970Z,8.80
2018-03-25T18:06:34.431Z,8.70
2018-03-25T18:09:01.927Z,8.70
2018-03-25T18:11:29.433Z,8.60
2018-03-25T18:13:57.642Z,8.50
2018-03-25T18:16:25.894Z,8.40
2018-03-25T18:18:53.350Z,8.40
2018-03-25T18:21:20.806Z,8.40
2018-03-25T18:23:48.278Z,8.40
2018-03-25T18:26:16.503Z,8.40
2018-03-25T18:28:44.003Z,8.40
2018-03-25T18:31:11.462Z,8.30
2018-03-25T18:33:39.435Z,8.30
2018-03-25T18:36:06.906Z,8.20
2018-03-25T18:38:35.403Z,8.10
2018-03-25T18:41:03.642Z,8.00
2018-03-25T18:43:31.312Z,8.00
2018-03-25T18:45:58.783Z,7.90
2018-03-25T18:48:26.234Z,7.90
2018-03-25T18:50:53.711Z,7.80
2018-03-25T18:53:22.634Z,7.60
2018-03-25T18:55:50.664Z,7.60
2018-03-25T18:58:18.131Z,7.50
2018-03-25T19:00:46.839Z,7.20
2018-03-25T19:03:14.352Z,7.20
2018-03-25T19:05:41.810Z,7.10
2018-03-25T19:08:10.363Z,7.00
2018-03-25T19:10:37.810Z,6.80
2018-03-25T19:13:05.274Z,6.50
2018-03-25T19:15:33.910Z,6.40
2018-03-25T19:18:02.286Z,6.20
2018-03-25T19:20:29.754Z,6.10
2018-03-25T19:22:57.980Z,5.70
2018-03-25T19:25:25.447Z,5.70
2018-03-25T19:27:55.242Z,5.60
2018-03-25T19:30:22.712Z,5.50
2018-03-25T19:32:50.575Z,5.40
2018-03-25T19:35:18.741Z,5.40
2018-03-25T19:37:46.242Z,5.30
2018-03-25T19:40:14.317Z,5.20
2018-03-25T19:42:42.239Z,5.10
2018-03-25T19:45:11.370Z,5.00
2018-03-25T19:47:38.838Z,4.90
2018-03-25T19:50:07.380Z,4.80
2018-03-25T19:52:36.784Z,4.70
2018-03-25T19:55:04.239Z,4.70
2018-03-25T19:57:31.691Z,4.50
2018-03-25T20:00:00.238Z,4.50
2018-03-25T20:02:28.468Z,4.20
2018-03-25T20:04:55.970Z,4.20
2018-03-25T20:07:23.428Z,4.10
2018-03-25T20:09:51.369Z,4.00
2018-03-25T20:12:18.835Z,3.90
2018-03-25T20:14:46.288Z,3.80
2018-03-25T20:17:14.005Z,3.70
2018-03-25T20:19:41.473Z,3.60
2018-03-25T20:22:09.390Z,3.60
2018-03-25T20:24:37.062Z,3.60
2018-03-25T20:27:04.572Z,3.60
2018-03-25T20:29:32.073Z,3.50
2018-03-25T20:31:59.530Z,3.50
2018-03-25T20:34:27.097Z,3.40
2018-03-25T20:36:55.316Z,3.30
2018-03-25T20:39:23.061Z,3.20
2018-03-25T20:41:51.922Z,3.10
2018-03-25T20:44:20.822Z,3.00
2018-03-25T20:46:49.054Z,3.00
2018-03-25T20:49:16.508Z,2.90
2018-03-25T20:51:43.990Z,2.80
2018-03-25T20:54:12.195Z,2.80
2018-03-25T20:56:40.734Z,2.60
2018-03-25T20:59:08.190Z,2.60
2018-03-25T21:01:36.342Z,2.60
2018-03-25T21:04:03.882Z,2.50
2018-03-25T21:06:32.751Z,2.50
2018-03-25T21:09:00.971Z,2.50
2018-03-25T21:11:29.302Z,2.50
2018-03-25T21:13:58.047Z,2.30
2018-03-25T21:16:25.619Z,2.30
2018-03-25T21:18:53.069Z,2.20
2018-03-25T21:21:20.538Z,2.10
2018-03-25T21:23:48.014Z,2.00
2018-03-25T21:26:15.688Z,2.00
2018-03-25T21:28:43.154Z,1.90
2018-03-25T21:31:11.703Z,1.70
2018-03-25T21:33:39.195Z,1.70
2018-03-25T21:36:07.422Z,1.50
2018-03-25T21:38:35.782Z,1.50
2018-03-25T21:41:03.918Z,1.50
2018-03-25T21:43:33.098Z,1.40
2018-03-25T21:46:00.679Z,1.40
2018-03-25T21:48:28.894Z,1.40
2018-03-25T21:50:57.284Z,1.30
2018-03-25T21:53:25.703Z,1.40
2018-03-25T21:55:53.618Z,1.30
2018-03-25T21:58:21.500Z,1.30
2018-03-25T22:00:49.575Z,1.30
2018-03-25T22:03:17.083Z,1.30
2018-03-25T22:05:45.713Z,1.20
2018-03-25T22:08:13.231Z,1.30
2018-03-25T22:10:41.480Z,1.30
2018-03-25T22:13:08.938Z,1.20
2018-03-25T22:15:36.967Z,1.30
2018-03-25T22:18:04.838Z,1.30
2018-03-25T22:20:32.305Z,1.40
2018-03-25T22:22:59.767Z,1.50
2018-03-25T22:25:27.238Z,1.50
2018-03-25T22:27:54.702Z,1.50
2018-03-25T22:30:22.165Z,1.60
2018-03-25T22:32:50.743Z,1.70
2018-03-25T22:35:18.214Z,1.80
2018-03-25T22:37:45.692Z,1.90
2018-03-25T22:40:14.948Z,2.00
2018-03-25T22:42:43.067Z,2.00
2018-03-25T22:45:12.351Z,2.10
2018-03-25T22:47:41.008Z,2.10
2018-03-25T22:50:08.467Z,2.20
2018-03-25T22:52:35.922Z,2.20
2018-03-25T22:55:03.387Z,2.30
2018-03-25T22:57:30.862Z,2.30
2018-03-25T22:59:58.338Z,2.30
2018-03-25T23:02:26.561Z,2.40
2018-03-25T23:04:55.254Z,2.40
2018-03-25T23:07:23.311Z,2.40
2018-03-25T23:09:50.771Z,2.40
2018-03-25T23:12:18.243Z,2.40
2018-03-25T23:14:45.914Z,2.40
2018-03-25T23:17:13.382Z,2.40
2018-03-25T23:19:40.838Z,2.40
2018-03-25T23:22:08.326Z,2.40
2018-03-25T23:24:35.850Z,2.40
2018-03-25T23:27:04.126Z,2.30
2018-03-25T23:29:31.596Z,2.30
2018-03-25T23:32:00.064Z,2.30
2018-03-25T23:34:28.074Z,2.30
2018-03-25T23:36:55.542Z,2.30
2018-03-25T23:39:24.457Z,2.40
2018-03-25T23:41:52.414Z,2.40
2018-03-25T23:44:20.644Z,2.60
2018-03-25T23:46:48.133Z,2.50
2018-03-25T23:49:17.170Z,2.60
2018-03-25T23:51:44.691Z,2.60
2018-03-25T23:54:13.526Z,2.60
2018-03-25T23:56:40.993Z,2.60
2018-03-25T23:59:09.094Z,2.60
